sensor_id;sensor_type;location;lat;lon;timestamp;P1;durP1;ratioP1;P2;durP2;ratioP2
40599;SDS011;26309;50.924;4.754;2023-09-30T00:02:17;14.80;;;5.53;;
40599;SDS011;26309;50.924;4.754;2023-09-30T00:04:43;9.63;;;4.93;;
40599;SDS011;26309;50.924;4.754;2023-09-30T00:07:09;7.35;;;4.88;;
40599;SDS011;26309;50.924;4.754;2023-09-30T00:09:34;10.75;;;5.13;;
40599;SDS011;26309;50.924;4.754;2023-09-30T00:12:00;10.50;;;5.70;;
40599;SDS011;26309;50.924;4.754;2023-09-30T00:14:28;11.05;;;5.43;;
40599;SDS011;26309;50.924;4.754;2023-09-30T00:16:54;5.82;;;4.70;;
40599;SDS011;26309;50.924;4.754;2023-09-30T00:19:20;12.63;;;5.00;;
40599;SDS011;26309;50.924;4.754;2023-09-30T00:21:47;8.32;;;5.03;;
40599;SDS011;26309;50.924;4.754;2023-09-30T00:24:13;10.38;;;5.25;;
40599;SDS011;26309;50.924;4.754;2023-09-30T00:26:39;11.00;;;5.55;;
40599;SDS011;26309;50.924;4.754;2023-09-30T00:29:05;12.82;;;5.32;;
40599;SDS011;26309;50.924;4.754;2023-09-30T00:31:31;13.98;;;5.45;;
40599;SDS011;26309;50.924;4.754;2023-09-30T00:33:57;10.95;;;5.43;;
40599;SDS011;26309;50.924;4.754;2023-09-30T00:36:23;11.57;;;5.82;;
40599;SDS011;26309;50.924;4.754;2023-09-30T00:38:49;16.92;;;5.57;;
40599;SDS011;26309;50.924;4.754;2023-09-30T00:44:09;14.00;;;5.68;;
40599;SDS011;26309;50.924;4.754;2023-09-30T00:46:36;11.13;;;5.75;;
40599;SDS011;26309;50.924;4.754;2023-09-30T00:49:05;9.43;;;5.25;;
40599;SDS011;26309;50.924;4.754;2023-09-30T00:51:31;10.27;;;5.57;;
40599;SDS011;26309;50.924;4.754;2023-09-30T00:53:58;11.40;;;5.43;;
40599;SDS011;26309;50.924;4.754;2023-09-30T00:56:25;9.52;;;4.78;;
40599;SDS011;26309;50.924;4.754;2023-09-30T00:58:53;11.05;;;5.65;;
40599;SDS011;26309;50.924;4.754;2023-09-30T01:01:19;13.30;;;5.55;;
40599;SDS011;26309;50.924;4.754;2023-09-30T01:03:46;13.80;;;5.55;;
40599;SDS011;26309;50.924;4.754;2023-09-30T01:06:12;13.43;;;5.15;;
40599;SDS011;26309;50.924;4.754;2023-09-30T01:08:39;10.57;;;5.32;;
40599;SDS011;26309;50.924;4.754;2023-09-30T01:11:05;10.88;;;4.82;;
40599;SDS011;26309;50.924;4.754;2023-09-30T01:13:34;9.68;;;5.90;;
40599;SDS011;26309;50.924;4.754;2023-09-30T01:18:31;9.48;;;4.78;;
40599;SDS011;26309;50.924;4.754;2023-09-30T01:20:59;13.73;;;5.80;;
40599;SDS011;26309;50.924;4.754;2023-09-30T01:23:29;12.82;;;6.32;;
40599;SDS011;26309;50.924;4.754;2023-09-30T01:25:55;10.57;;;5.78;;
40599;SDS011;26309;50.924;4.754;2023-09-30T01:28:21;14.75;;;6.50;;
40599;SDS011;26309;50.924;4.754;2023-09-30T01:30:48;12.10;;;7.30;;
40599;SDS011;26309;50.924;4.754;2023-09-30T01:33:14;15.50;;;7.13;;
40599;SDS011;26309;50.924;4.754;2023-09-30T01:35:44;13.45;;;7.97;;
40599;SDS011;26309;50.924;4.754;2023-09-30T01:38:10;19.92;;;7.97;;
40599;SDS011;26309;50.924;4.754;2023-09-30T01:40:36;15.30;;;7.30;;
40599;SDS011;26309;50.924;4.754;2023-09-30T01:43:03;11.80;;;6.15;;
40599;SDS011;26309;50.924;4.754;2023-09-30T01:45:29;15.85;;;7.38;;
40599;SDS011;26309;50.924;4.754;2023-09-30T01:47:55;12.93;;;7.63;;
40599;SDS011;26309;50.924;4.754;2023-09-30T01:50:21;18.90;;;7.65;;
40599;SDS011;26309;50.924;4.754;2023-09-30T01:52:46;11.18;;;7.70;;
40599;SDS011;26309;50.924;4.754;2023-09-30T01:55:12;12.90;;;7.43;;
40599;SDS011;26309;50.924;4.754;2023-09-30T01:57:38;11.65;;;6.93;;
40599;SDS011;26309;50.924;4.754;2023-09-30T02:00:04;9.52;;;6.50;;
40599;SDS011;26309;50.924;4.754;2023-09-30T02:02:34;11.63;;;7.82;;
40599;SDS011;26309;50.924;4.754;2023-09-30T02:05:01;15.35;;;7.75;;
40599;SDS011;26309;50.924;4.754;2023-09-30T02:07:28;13.50;;;8.73;;
40599;SDS011;26309;50.924;4.754;2023-09-30T02:09:54;13.18;;;8.18;;
40599;SDS011;26309;50.924;4.754;2023-09-30T02:12:20;14.23;;;7.53;;
40599;SDS011;26309;50.924;4.754;2023-09-30T02:14:46;19.00;;;7.70;;
40599;SDS011;26309;50.924;4.754;2023-09-30T02:17:12;11.18;;;6.82;;
40599;SDS011;26309;50.924;4.754;2023-09-30T02:19:38;9.35;;;6.68;;
40599;SDS011;26309;50.924;4.754;2023-09-30T02:22:05;7.47;;;6.07;;
40599;SDS011;26309;50.924;4.754;2023-09-30T02:24:31;15.70;;;7.55;;
40599;SDS011;26309;50.924;4.754;2023-09-30T02:26:57;15.82;;;7.00;;
40599;SDS011;26309;50.924;4.754;2023-09-30T02:29:23;12.45;;;6.13;;
40599;SDS011;26309;50.924;4.754;2023-09-30T02:31:49;11.27;;;5.97;;
40599;SDS011;26309;50.924;4.754;2023-09-30T02:34:16;9.20;;;6.00;;
40599;SDS011;26309;50.924;4.754;2023-09-30T02:36:42;10.77;;;6.03;;
40599;SDS011;26309;50.924;4.754;2023-09-30T02:39:09;14.18;;;6.32;;
40599;SDS011;26309;50.924;4.754;2023-09-30T02:41:35;14.90;;;6.95;;
40599;SDS011;26309;50.924;4.754;2023-09-30T02:44:02;9.27;;;4.63;;
40599;SDS011;26309;50.924;4.754;2023-09-30T02:46:28;17.50;;;6.15;;
40599;SDS011;26309;50.924;4.754;2023-09-30T02:48:54;18.17;;;7.35;;
40599;SDS011;26309;50.924;4.754;2023-09-30T02:51:20;14.23;;;7.70;;
40599;SDS011;26309;50.924;4.754;2023-09-30T02:53:46;13.80;;;7.55;;
40599;SDS011;26309;50.924;4.754;2023-09-30T02:56:13;15.25;;;7.90;;
40599;SDS011;26309;50.924;4.754;2023-09-30T02:58:39;14.23;;;8.05;;
40599;SDS011;26309;50.924;4.754;2023-09-30T03:01:05;11.18;;;7.43;;
40599;SDS011;26309;50.924;4.754;2023-09-30T03:03:32;11.05;;;6.35;;
40599;SDS011;26309;50.924;4.754;2023-09-30T03:05:58;14.40;;;6.53;;
40599;SDS011;26309;50.924;4.754;2023-09-30T03:08:25;15.98;;;6.75;;
40599;SDS011;26309;50.924;4.754;2023-09-30T03:10:51;13.10;;;6.03;;
40599;SDS011;26309;50.924;4.754;2023-09-30T03:13:18;11.57;;;6.38;;
40599;SDS011;26309;50.924;4.754;2023-09-30T03:15:47;9.13;;;5.60;;
40599;SDS011;26309;50.924;4.754;2023-09-30T03:18:15;14.60;;;6.05;;
40599;SDS011;26309;50.924;4.754;2023-09-30T03:20:42;14.15;;;6.95;;
40599;SDS011;26309;50.924;4.754;2023-09-30T03:23:09;17.15;;;6.70;;
40599;SDS011;26309;50.924;4.754;2023-09-30T03:25:35;10.85;;;5.75;;
40599;SDS011;26309;50.924;4.754;2023-09-30T03:28:01;14.35;;;7.30;;
40599;SDS011;26309;50.924;4.754;2023-09-30T03:30:28;14.63;;;6.57;;
40599;SDS011;26309;50.924;4.754;2023-09-30T03:32:54;11.45;;;7.70;;
40599;SDS011;26309;50.924;4.754;2023-09-30T03:35:20;15.77;;;7.47;;
40599;SDS011;26309;50.924;4.754;2023-09-30T03:37:47;11.02;;;7.60;;
40599;SDS011;26309;50.924;4.754;2023-09-30T03:40:13;16.20;;;7.38;;
40599;SDS011;26309;50.924;4.754;2023-09-30T03:42:46;17.58;;;7.70;;
40599;SDS011;26309;50.924;4.754;2023-09-30T03:45:19;11.85;;;6.78;;
40599;SDS011;26309;50.924;4.754;2023-09-30T03:47:45;19.98;;;7.32;;
40599;SDS011;26309;50.924;4.754;2023-09-30T03:50:16;11.80;;;6.88;;
40599;SDS011;26309;50.924;4.754;2023-09-30T03:55:28;12.88;;;5.85;;
40599;SDS011;26309;50.924;4.754;2023-09-30T03:57:55;14.18;;;5.82;;
40599;SDS011;26309;50.924;4.754;2023-09-30T04:00:21;11.38;;;7.07;;
40599;SDS011;26309;50.924;4.754;2023-09-30T04:02:47;14.95;;;7.60;;
40599;SDS011;26309;50.924;4.754;2023-09-30T04:05:14;12.82;;;7.80;;
40599;SDS011;26309;50.924;4.754;2023-09-30T04:07:42;14.15;;;7.07;;
40599;SDS011;26309;50.924;4.754;2023-09-30T04:10:09;17.98;;;6.93;;
40599;SDS011;26309;50.924;4.754;2023-09-30T04:12:35;10.63;;;6.70;;
40599;SDS011;26309;50.924;4.754;2023-09-30T04:15:02;17.52;;;7.18;;
40599;SDS011;26309;50.924;4.754;2023-09-30T04:17:30;13.35;;;7.15;;
40599;SDS011;26309;50.924;4.754;2023-09-30T04:19:57;17.75;;;7.63;;
40599;SDS011;26309;50.924;4.754;2023-09-30T04:22:23;17.42;;;7.55;;
40599;SDS011;26309;50.924;4.754;2023-09-30T04:24:50;12.35;;;6.93;;
40599;SDS011;26309;50.924;4.754;2023-09-30T04:27:17;9.90;;;6.50;;
40599;SDS011;26309;50.924;4.754;2023-09-30T04:29:43;10.68;;;6.13;;
40599;SDS011;26309;50.924;4.754;2023-09-30T04:32:09;16.25;;;6.78;;
40599;SDS011;26309;50.924;4.754;2023-09-30T04:34:35;13.18;;;7.38;;
40599;SDS011;26309;50.924;4.754;2023-09-30T04:37:00;17.05;;;10.30;;
40599;SDS011;26309;50.924;4.754;2023-09-30T04:39:27;15.00;;;8.05;;
40599;SDS011;26309;50.924;4.754;2023-09-30T04:41:53;17.02;;;7.90;;
40599;SDS011;26309;50.924;4.754;2023-09-30T04:44:20;14.75;;;10.00;;
40599;SDS011;26309;50.924;4.754;2023-09-30T04:46:48;17.77;;;9.73;;
40599;SDS011;26309;50.924;4.754;2023-09-30T04:49:14;18.38;;;8.35;;
40599;SDS011;26309;50.924;4.754;2023-09-30T04:51:40;19.13;;;7.97;;
40599;SDS011;26309;50.924;4.754;2023-09-30T04:54:06;12.38;;;8.30;;
40599;SDS011;26309;50.924;4.754;2023-09-30T04:56:33;20.98;;;9.25;;
40599;SDS011;26309;50.924;4.754;2023-09-30T04:59:00;23.27;;;11.93;;
40599;SDS011;26309;50.924;4.754;2023-09-30T05:01:27;28.75;;;14.30;;
40599;SDS011;26309;50.924;4.754;2023-09-30T05:03:53;23.38;;;11.93;;
40599;SDS011;26309;50.924;4.754;2023-09-30T05:06:19;33.50;;;12.88;;
40599;SDS011;26309;50.924;4.754;2023-09-30T05:08:46;33.47;;;18.42;;
40599;SDS011;26309;50.924;4.754;2023-09-30T05:11:13;19.90;;;9.77;;
40599;SDS011;26309;50.924;4.754;2023-09-30T05:13:42;19.85;;;9.57;;
40599;SDS011;26309;50.924;4.754;2023-09-30T05:16:08;34.78;;;18.25;;
40599;SDS011;26309;50.924;4.754;2023-09-30T05:18:33;27.98;;;13.98;;
40599;SDS011;26309;50.924;4.754;2023-09-30T05:20:59;33.83;;;15.27;;
40599;SDS011;26309;50.924;4.754;2023-09-30T05:23:25;29.02;;;13.68;;
40599;SDS011;26309;50.924;4.754;2023-09-30T05:25:51;55.22;;;23.52;;
40599;SDS011;26309;50.924;4.754;2023-09-30T05:28:20;35.00;;;16.85;;
40599;SDS011;26309;50.924;4.754;2023-09-30T05:30:46;32.03;;;15.20;;
40599;SDS011;26309;50.924;4.754;2023-09-30T05:33:12;48.88;;;19.05;;
40599;SDS011;26309;50.924;4.754;2023-09-30T05:35:40;28.45;;;13.65;;
40599;SDS011;26309;50.924;4.754;2023-09-30T05:38:07;31.63;;;14.40;;
40599;SDS011;26309;50.924;4.754;2023-09-30T05:40:33;43.75;;;18.75;;
40599;SDS011;26309;50.924;4.754;2023-09-30T05:42:59;53.03;;;22.73;;
40599;SDS011;26309;50.924;4.754;2023-09-30T05:45:25;57.60;;;21.63;;
40599;SDS011;26309;50.924;4.754;2023-09-30T05:50:32;61.08;;;24.45;;
40599;SDS011;26309;50.924;4.754;2023-09-30T05:53:01;70.25;;;28.08;;
40599;SDS011;26309;50.924;4.754;2023-09-30T05:55:28;66.82;;;25.42;;
40599;SDS011;26309;50.924;4.754;2023-09-30T05:57:54;78.50;;;26.67;;
40599;SDS011;26309;50.924;4.754;2023-09-30T06:00:20;75.22;;;28.42;;
40599;SDS011;26309;50.924;4.754;2023-09-30T06:02:48;77.32;;;28.30;;
40599;SDS011;26309;50.924;4.754;2023-09-30T06:05:15;77.18;;;29.45;;
40599;SDS011;26309;50.924;4.754;2023-09-30T06:07:55;81.90;;;28.80;;
40599;SDS011;26309;50.924;4.754;2023-09-30T06:10:22;68.03;;;26.75;;
40599;SDS011;26309;50.924;4.754;2023-09-30T06:12:48;68.70;;;26.75;;
40599;SDS011;26309;50.924;4.754;2023-09-30T06:15:20;66.40;;;26.98;;
40599;SDS011;26309;50.924;4.754;2023-09-30T06:17:51;58.30;;;25.13;;
40599;SDS011;26309;50.924;4.754;2023-09-30T06:20:21;72.53;;;27.85;;
40599;SDS011;26309;50.924;4.754;2023-09-30T06:22:47;73.80;;;27.55;;
40599;SDS011;26309;50.924;4.754;2023-09-30T06:25:15;73.20;;;26.08;;
40599;SDS011;26309;50.924;4.754;2023-09-30T06:27:43;61.05;;;23.73;;
40599;SDS011;26309;50.924;4.754;2023-09-30T06:30:11;69.53;;;23.92;;
40599;SDS011;26309;50.924;4.754;2023-09-30T06:32:41;68.80;;;24.17;;
40599;SDS011;26309;50.924;4.754;2023-09-30T06:35:12;59.88;;;25.20;;
40599;SDS011;26309;50.924;4.754;2023-09-30T06:37:39;48.10;;;19.80;;
40599;SDS011;26309;50.924;4.754;2023-09-30T06:40:06;49.65;;;20.38;;
40599;SDS011;26309;50.924;4.754;2023-09-30T06:42:34;45.00;;;18.27;;
40599;SDS011;26309;50.924;4.754;2023-09-30T06:45:01;48.00;;;21.00;;
40599;SDS011;26309;50.924;4.754;2023-09-30T06:47:34;55.28;;;19.60;;
40599;SDS011;26309;50.924;4.754;2023-09-30T06:50:07;42.83;;;19.67;;
40599;SDS011;26309;50.924;4.754;2023-09-30T06:52:42;56.70;;;19.95;;
40599;SDS011;26309;50.924;4.754;2023-09-30T06:55:10;52.60;;;20.55;;
40599;SDS011;26309;50.924;4.754;2023-09-30T06:57:41;42.70;;;19.58;;
40599;SDS011;26309;50.924;4.754;2023-09-30T07:00:08;49.38;;;19.45;;
40599;SDS011;26309;50.924;4.754;2023-09-30T07:02:37;60.92;;;19.92;;
40599;SDS011;26309;50.924;4.754;2023-09-30T07:05:10;48.88;;;20.48;;
40599;SDS011;26309;50.924;4.754;2023-09-30T07:07:37;57.83;;;19.77;;
40599;SDS011;26309;50.924;4.754;2023-09-30T07:10:07;45.80;;;19.98;;
40599;SDS011;26309;50.924;4.754;2023-09-30T07:12:34;50.30;;;19.15;;
40599;SDS011;26309;50.924;4.754;2023-09-30T07:15:04;52.30;;;17.85;;
40599;SDS011;26309;50.924;4.754;2023-09-30T07:17:34;43.00;;;17.55;;
40599;SDS011;26309;50.924;4.754;2023-09-30T07:20:01;35.25;;;17.55;;
40599;SDS011;26309;50.924;4.754;2023-09-30T07:22:27;40.30;;;16.50;;
40599;SDS011;26309;50.924;4.754;2023-09-30T07:24:53;45.13;;;17.40;;
40599;SDS011;26309;50.924;4.754;2023-09-30T07:27:19;36.33;;;15.70;;
40599;SDS011;26309;50.924;4.754;2023-09-30T07:29:45;39.90;;;16.73;;
40599;SDS011;26309;50.924;4.754;2023-09-30T07:32:11;37.75;;;16.17;;
40599;SDS011;26309;50.924;4.754;2023-09-30T07:34:37;35.92;;;15.60;;
40599;SDS011;26309;50.924;4.754;2023-09-30T07:37:03;35.45;;;14.07;;
40599;SDS011;26309;50.924;4.754;2023-09-30T07:39:29;34.22;;;13.93;;
40599;SDS011;26309;50.924;4.754;2023-09-30T07:41:56;32.05;;;13.50;;
40599;SDS011;26309;50.924;4.754;2023-09-30T07:44:22;31.08;;;13.95;;
40599;SDS011;26309;50.924;4.754;2023-09-30T07:46:47;33.75;;;13.23;;
40599;SDS011;26309;50.924;4.754;2023-09-30T07:49:13;28.00;;;12.82;;
40599;SDS011;26309;50.924;4.754;2023-09-30T07:51:40;35.83;;;13.10;;
40599;SDS011;26309;50.924;4.754;2023-09-30T07:54:05;26.35;;;11.77;;
40599;SDS011;26309;50.924;4.754;2023-09-30T07:56:31;27.52;;;12.07;;
40599;SDS011;26309;50.924;4.754;2023-09-30T07:58:57;30.23;;;11.45;;
40599;SDS011;26309;50.924;4.754;2023-09-30T08:01:24;29.73;;;11.13;;
40599;SDS011;26309;50.924;4.754;2023-09-30T08:03:50;21.40;;;10.55;;
40599;SDS011;26309;50.924;4.754;2023-09-30T08:06:16;26.60;;;11.20;;
40599;SDS011;26309;50.924;4.754;2023-09-30T08:08:42;28.38;;;11.00;;
40599;SDS011;26309;50.924;4.754;2023-09-30T08:11:08;24.23;;;10.68;;
40599;SDS011;26309;50.924;4.754;2023-09-30T08:13:34;26.17;;;10.27;;
40599;SDS011;26309;50.924;4.754;2023-09-30T08:16:00;23.05;;;9.10;;
40599;SDS011;26309;50.924;4.754;2023-09-30T08:18:26;20.17;;;9.68;;
40599;SDS011;26309;50.924;4.754;2023-09-30T08:20:52;25.30;;;10.02;;
40599;SDS011;26309;50.924;4.754;2023-09-30T08:23:18;25.88;;;9.38;;
40599;SDS011;26309;50.924;4.754;2023-09-30T08:25:47;20.42;;;8.98;;
40599;SDS011;26309;50.924;4.754;2023-09-30T08:28:12;28.02;;;8.55;;
40599;SDS011;26309;50.924;4.754;2023-09-30T08:30:38;22.13;;;8.50;;
40599;SDS011;26309;50.924;4.754;2023-09-30T08:33:06;22.63;;;9.20;;
40599;SDS011;26309;50.924;4.754;2023-09-30T08:35:36;23.25;;;8.75;;
40599;SDS011;26309;50.924;4.754;2023-09-30T08:38:08;22.05;;;8.50;;
40599;SDS011;26309;50.924;4.754;2023-09-30T08:40:34;28.42;;;7.72;;
40599;SDS011;26309;50.924;4.754;2023-09-30T08:43:00;20.13;;;8.18;;
40599;SDS011;26309;50.924;4.754;2023-09-30T08:45:29;18.77;;;7.70;;
40599;SDS011;26309;50.924;4.754;2023-09-30T08:48:04;25.98;;;8.07;;
40599;SDS011;26309;50.924;4.754;2023-09-30T08:50:31;18.52;;;7.22;;
40599;SDS011;26309;50.924;4.754;2023-09-30T08:52:59;18.40;;;7.45;;
40599;SDS011;26309;50.924;4.754;2023-09-30T08:55:29;21.02;;;6.65;;
40599;SDS011;26309;50.924;4.754;2023-09-30T08:57:55;20.75;;;7.25;;
40599;SDS011;26309;50.924;4.754;2023-09-30T09:00:22;21.60;;;7.50;;
40599;SDS011;26309;50.924;4.754;2023-09-30T09:02:49;22.80;;;7.10;;
40599;SDS011;26309;50.924;4.754;2023-09-30T09:05:15;23.63;;;6.78;;
40599;SDS011;26309;50.924;4.754;2023-09-30T09:07:42;21.13;;;7.18;;
40599;SDS011;26309;50.924;4.754;2023-09-30T09:10:10;20.98;;;6.82;;
40599;SDS011;26309;50.924;4.754;2023-09-30T09:12:43;17.00;;;6.18;;
40599;SDS011;26309;50.924;4.754;2023-09-30T09:15:24;24.55;;;6.72;;
40599;SDS011;26309;50.924;4.754;2023-09-30T09:17:52;16.38;;;6.30;;
40599;SDS011;26309;50.924;4.754;2023-09-30T09:20:19;17.40;;;5.70;;
40599;SDS011;26309;50.924;4.754;2023-09-30T09:22:47;21.33;;;5.97;;
40599;SDS011;26309;50.924;4.754;2023-09-30T09:25:16;16.40;;;5.97;;
40599;SDS011;26309;50.924;4.754;2023-09-30T09:27:42;20.27;;;6.00;;
40599;SDS011;26309;50.924;4.754;2023-09-30T09:30:19;20.83;;;5.85;;
40599;SDS011;26309;50.924;4.754;2023-09-30T09:32:59;14.75;;;5.72;;
40599;SDS011;26309;50.924;4.754;2023-09-30T09:35:25;18.33;;;5.65;;
40599;SDS011;26309;50.924;4.754;2023-09-30T09:40:44;17.88;;;5.03;;
40599;SDS011;26309;50.924;4.754;2023-09-30T09:43:10;17.92;;;4.97;;
40599;SDS011;26309;50.924;4.754;2023-09-30T09:45:36;16.88;;;5.72;;
40599;SDS011;26309;50.924;4.754;2023-09-30T09:48:06;12.23;;;5.15;;
40599;SDS011;26309;50.924;4.754;2023-09-30T09:50:32;17.05;;;5.80;;
40599;SDS011;26309;50.924;4.754;2023-09-30T09:53:01;15.52;;;5.78;;
40599;SDS011;26309;50.924;4.754;2023-09-30T09:55:29;20.83;;;6.25;;
40599;SDS011;26309;50.924;4.754;2023-09-30T09:57:55;16.98;;;5.95;;
40599;SDS011;26309;50.924;4.754;2023-09-30T10:00:24;13.85;;;5.65;;
40599;SDS011;26309;50.924;4.754;2023-09-30T10:02:51;18.42;;;6.45;;
40599;SDS011;26309;50.924;4.754;2023-09-30T10:05:19;13.73;;;5.85;;
40599;SDS011;26309;50.924;4.754;2023-09-30T10:07:54;13.45;;;5.00;;
40599;SDS011;26309;50.924;4.754;2023-09-30T10:10:21;18.42;;;5.55;;
40599;SDS011;26309;50.924;4.754;2023-09-30T10:12:48;15.15;;;6.40;;
40599;SDS011;26309;50.924;4.754;2023-09-30T10:15:56;15.27;;;6.22;;
40599;SDS011;26309;50.924;4.754;2023-09-30T10:18:07;14.48;;;5.90;;
40599;SDS011;26309;50.924;4.754;2023-09-30T10:20:39;15.35;;;5.78;;
40599;SDS011;26309;50.924;4.754;2023-09-30T10:28:56;12.15;;;5.28;;
40599;SDS011;26309;50.924;4.754;2023-09-30T10:31:35;9.88;;;4.22;;
40599;SDS011;26309;50.924;4.754;2023-09-30T10:34:21;11.20;;;4.20;;
40599;SDS011;26309;50.924;4.754;2023-09-30T10:36:47;10.80;;;4.63;;
40599;SDS011;26309;50.924;4.754;2023-09-30T10:39:17;10.45;;;4.55;;
40599;SDS011;26309;50.924;4.754;2023-09-30T10:45:40;14.38;;;5.10;;
40599;SDS011;26309;50.924;4.754;2023-09-30T10:48:55;12.70;;;4.35;;
40599;SDS011;26309;50.924;4.754;2023-09-30T10:50:57;11.40;;;4.85;;
40599;SDS011;26309;50.924;4.754;2023-09-30T10:53:26;7.05;;;3.60;;
40599;SDS011;26309;50.924;4.754;2023-09-30T10:55:54;12.60;;;4.32;;
40599;SDS011;26309;50.924;4.754;2023-09-30T10:58:21;11.30;;;4.20;;
40599;SDS011;26309;50.924;4.754;2023-09-30T11:01:10;13.60;;;4.53;;
40599;SDS011;26309;50.924;4.754;2023-09-30T11:03:39;13.73;;;4.65;;
40599;SDS011;26309;50.924;4.754;2023-09-30T11:06:07;9.70;;;4.43;;
40599;SDS011;26309;50.924;4.754;2023-09-30T11:08:38;12.68;;;3.95;;
40599;SDS011;26309;50.924;4.754;2023-09-30T11:11:12;10.05;;;3.70;;
40599;SDS011;26309;50.924;4.754;2023-09-30T11:13:39;10.00;;;3.63;;
40599;SDS011;26309;50.924;4.754;2023-09-30T11:16:06;10.85;;;3.88;;
40599;SDS011;26309;50.924;4.754;2023-09-30T11:18:33;9.30;;;4.00;;
40599;SDS011;26309;50.924;4.754;2023-09-30T11:21:05;8.38;;;3.30;;
40599;SDS011;26309;50.924;4.754;2023-09-30T11:23:32;10.27;;;3.70;;
40599;SDS011;26309;50.924;4.754;2023-09-30T11:25:58;7.50;;;3.20;;
40599;SDS011;26309;50.924;4.754;2023-09-30T11:28:34;12.38;;;3.67;;
40599;SDS011;26309;50.924;4.754;2023-09-30T11:31:11;10.30;;;3.55;;
40599;SDS011;26309;50.924;4.754;2023-09-30T11:33:49;8.75;;;3.50;;
40599;SDS011;26309;50.924;4.754;2023-09-30T11:36:21;12.07;;;4.35;;
40599;SDS011;26309;50.924;4.754;2023-09-30T11:38:56;13.13;;;3.75;;
40599;SDS011;26309;50.924;4.754;2023-09-30T11:41:32;9.40;;;3.88;;
40599;SDS011;26309;50.924;4.754;2023-09-30T11:44:06;10.52;;;3.63;;
40599;SDS011;26309;50.924;4.754;2023-09-30T11:49:37;11.65;;;3.67;;
40599;SDS011;26309;50.924;4.754;2023-09-30T11:52:06;9.02;;;3.40;;
40599;SDS011;26309;50.924;4.754;2023-09-30T11:57:08;12.60;;;3.80;;
40599;SDS011;26309;50.924;4.754;2023-09-30T11:59:37;10.57;;;3.28;;
40599;SDS011;26309;50.924;4.754;2023-09-30T12:02:04;11.95;;;3.90;;
40599;SDS011;26309;50.924;4.754;2023-09-30T12:04:36;7.75;;;3.53;;
40599;SDS011;26309;50.924;4.754;2023-09-30T12:07:03;8.38;;;3.05;;
40599;SDS011;26309;50.924;4.754;2023-09-30T12:09:32;9.77;;;3.63;;
40599;SDS011;26309;50.924;4.754;2023-09-30T12:12:00;8.73;;;3.65;;
40599;SDS011;26309;50.924;4.754;2023-09-30T12:14:26;12.65;;;3.92;;
40599;SDS011;26309;50.924;4.754;2023-09-30T12:16:55;13.52;;;3.95;;
40599;SDS011;26309;50.924;4.754;2023-09-30T12:19:21;10.82;;;4.00;;
40599;SDS011;26309;50.924;4.754;2023-09-30T12:21:47;7.75;;;3.20;;
40599;SDS011;26309;50.924;4.754;2023-09-30T12:24:14;11.35;;;3.60;;
40599;SDS011;26309;50.924;4.754;2023-09-30T12:26:43;7.82;;;3.45;;
40599;SDS011;26309;50.924;4.754;2023-09-30T12:29:17;8.80;;;3.92;;
40599;SDS011;26309;50.924;4.754;2023-09-30T12:31:47;10.70;;;3.72;;
40599;SDS011;26309;50.924;4.754;2023-09-30T12:34:14;11.25;;;3.50;;
40599;SDS011;26309;50.924;4.754;2023-09-30T12:36:40;9.70;;;3.50;;
40599;SDS011;26309;50.924;4.754;2023-09-30T12:39:07;6.95;;;3.17;;
40599;SDS011;26309;50.924;4.754;2023-09-30T12:41:42;9.32;;;3.35;;
40599;SDS011;26309;50.924;4.754;2023-09-30T12:44:09;7.00;;;3.25;;
40599;SDS011;26309;50.924;4.754;2023-09-30T12:46:36;7.05;;;3.08;;
40599;SDS011;26309;50.924;4.754;2023-09-30T12:49:04;9.38;;;3.45;;
40599;SDS011;26309;50.924;4.754;2023-09-30T12:51:33;8.93;;;3.45;;
40599;SDS011;26309;50.924;4.754;2023-09-30T12:54:00;11.27;;;3.75;;
40599;SDS011;26309;50.924;4.754;2023-09-30T12:56:26;9.18;;;3.22;;
40599;SDS011;26309;50.924;4.754;2023-09-30T12:58:54;8.88;;;3.40;;
40599;SDS011;26309;50.924;4.754;2023-09-30T13:01:21;13.23;;;3.70;;
40599;SDS011;26309;50.924;4.754;2023-09-30T13:03:47;12.30;;;4.05;;
40599;SDS011;26309;50.924;4.754;2023-09-30T13:06:14;12.10;;;3.80;;
40599;SDS011;26309;50.924;4.754;2023-09-30T13:08:41;9.77;;;3.20;;
40599;SDS011;26309;50.924;4.754;2023-09-30T13:11:07;10.43;;;3.55;;
40599;SDS011;26309;50.924;4.754;2023-09-30T13:13:33;8.88;;;3.20;;
40599;SDS011;26309;50.924;4.754;2023-09-30T13:16:00;7.25;;;3.20;;
40599;SDS011;26309;50.924;4.754;2023-09-30T13:18:27;10.77;;;2.97;;
40599;SDS011;26309;50.924;4.754;2023-09-30T13:20:53;8.60;;;3.33;;
40599;SDS011;26309;50.924;4.754;2023-09-30T13:23:20;8.15;;;3.22;;
40599;SDS011;26309;50.924;4.754;2023-09-30T13:25:46;9.90;;;2.88;;
40599;SDS011;26309;50.924;4.754;2023-09-30T13:28:12;9.40;;;3.40;;
40599;SDS011;26309;50.924;4.754;2023-09-30T13:30:39;9.07;;;3.17;;
40599;SDS011;26309;50.924;4.754;2023-09-30T13:33:05;8.40;;;3.10;;
40599;SDS011;26309;50.924;4.754;2023-09-30T13:35:31;10.13;;;2.67;;
40599;SDS011;26309;50.924;4.754;2023-09-30T13:37:57;6.10;;;2.90;;
40599;SDS011;26309;50.924;4.754;2023-09-30T13:40:24;6.70;;;2.70;;
40599;SDS011;26309;50.924;4.754;2023-09-30T13:42:50;8.57;;;3.08;;
40599;SDS011;26309;50.924;4.754;2023-09-30T13:45:16;8.95;;;3.05;;
40599;SDS011;26309;50.924;4.754;2023-09-30T13:47:42;9.38;;;3.17;;
40599;SDS011;26309;50.924;4.754;2023-09-30T13:50:08;7.30;;;2.90;;
40599;SDS011;26309;50.924;4.754;2023-09-30T13:52:35;4.20;;;2.38;;
40599;SDS011;26309;50.924;4.754;2023-09-30T13:55:01;4.85;;;2.50;;
40599;SDS011;26309;50.924;4.754;2023-09-30T13:57:28;6.43;;;3.10;;
40599;SDS011;26309;50.924;4.754;2023-09-30T13:59:54;5.43;;;2.83;;
40599;SDS011;26309;50.924;4.754;2023-09-30T14:02:21;9.50;;;3.00;;
40599;SDS011;26309;50.924;4.754;2023-09-30T14:04:48;8.45;;;3.00;;
40599;SDS011;26309;50.924;4.754;2023-09-30T14:07:14;7.47;;;3.05;;
40599;SDS011;26309;50.924;4.754;2023-09-30T14:09:43;6.65;;;3.08;;
40599;SDS011;26309;50.924;4.754;2023-09-30T14:12:09;7.05;;;3.00;;
40599;SDS011;26309;50.924;4.754;2023-09-30T14:14:35;9.15;;;3.00;;
40599;SDS011;26309;50.924;4.754;2023-09-30T14:17:04;8.93;;;3.05;;
40599;SDS011;26309;50.924;4.754;2023-09-30T14:19:35;7.60;;;2.90;;
40599;SDS011;26309;50.924;4.754;2023-09-30T14:22:02;9.38;;;3.05;;
40599;SDS011;26309;50.924;4.754;2023-09-30T14:24:33;9.88;;;3.40;;
40599;SDS011;26309;50.924;4.754;2023-09-30T14:27:00;8.10;;;3.42;;
40599;SDS011;26309;50.924;4.754;2023-09-30T14:29:26;7.88;;;2.88;;
40599;SDS011;26309;50.924;4.754;2023-09-30T14:31:53;8.98;;;3.15;;
40599;SDS011;26309;50.924;4.754;2023-09-30T14:34:19;7.00;;;2.90;;
40599;SDS011;26309;50.924;4.754;2023-09-30T14:36:45;7.68;;;2.70;;
40599;SDS011;26309;50.924;4.754;2023-09-30T14:39:12;8.52;;;3.08;;
40599;SDS011;26309;50.924;4.754;2023-09-30T14:41:38;7.68;;;3.33;;
40599;SDS011;26309;50.924;4.754;2023-09-30T14:44:04;7.78;;;3.00;;
40599;SDS011;26309;50.924;4.754;2023-09-30T14:46:36;9.77;;;2.83;;
40599;SDS011;26309;50.924;4.754;2023-09-30T14:49:02;6.15;;;2.67;;
40599;SDS011;26309;50.924;4.754;2023-09-30T14:51:28;6.85;;;2.97;;
40599;SDS011;26309;50.924;4.754;2023-09-30T14:53:54;5.20;;;2.95;;
40599;SDS011;26309;50.924;4.754;2023-09-30T14:56:20;6.20;;;2.90;;
40599;SDS011;26309;50.924;4.754;2023-09-30T14:58:46;6.88;;;2.85;;
40599;SDS011;26309;50.924;4.754;2023-09-30T15:01:15;7.47;;;3.00;;
40599;SDS011;26309;50.924;4.754;2023-09-30T15:03:41;6.88;;;2.88;;
40599;SDS011;26309;50.924;4.754;2023-09-30T15:06:08;8.25;;;2.65;;
40599;SDS011;26309;50.924;4.754;2023-09-30T15:08:34;5.53;;;2.50;;